sensor_id;sensor_type;location;lat;lon;timestamp;pressure;altitude;pressure_sealevel;temperature;humidity
68301;BME280;55146;47.468;18.806;2023-05-21T00:00:27;100095.94;;;18.17;69.12
68301;BME280;55146;47.468;18.806;2023-05-21T00:02:52;100096.44;;;18.19;69.13
68301;BME280;55146;47.468;18.806;2023-05-21T00:05:18;100097.41;;;18.15;68.43
68301;BME280;55146;47.468;18.806;2023-05-21T00:07:45;100092.53;;;18.21;68.76
68301;BME280;55146;47.468;18.806;2023-05-21T00:10:11;100095.78;;;18.23;68.57
68301;BME280;55146;47.468;18.806;2023-05-21T00:12:37;100097.91;;;18.17;68.90
68301;BME280;55146;47.468;18.806;2023-05-21T00:15:03;100094.78;;;18.10;69.32
68301;BME280;55146;47.468;18.806;2023-05-21T00:17:28;100093.94;;;18.01;69.12
68301;BME280;55146;47.468;18.806;2023-05-21T00:19:54;100092.19;;;18.13;68.71
68301;BME280;55146;47.468;18.806;2023-05-21T00:22:21;100089.38;;;18.13;68.62
68301;BME280;55146;47.468;18.806;2023-05-21T00:24:46;100091.47;;;17.99;69.59
68301;BME280;55146;47.468;18.806;2023-05-21T00:27:12;100090.53;;;18.12;68.85
68301;BME280;55146;47.468;18.806;2023-05-21T00:29:38;100097.44;;;18.24;67.78
68301;BME280;55146;47.468;18.806;2023-05-21T00:32:04;100095.78;;;18.23;68.01
68301;BME280;55146;47.468;18.806;2023-05-21T00:34:29;100094.47;;;18.20;68.65
68301;BME280;55146;47.468;18.806;2023-05-21T00:36:55;100098.09;;;18.21;68.40
68301;BME280;55146;47.468;18.806;2023-05-21T00:39:22;100100.84;;;18.12;68.95
68301;BME280;55146;47.468;18.806;2023-05-21T00:41:48;100096.09;;;18.12;68.98
68301;BME280;55146;47.468;18.806;2023-05-21T00:44:14;100092.31;;;18.08;69.01
68301;BME280;55146;47.468;18.806;2023-05-21T00:46:40;100087.22;;;17.93;70.09
68301;BME280;55146;47.468;18.806;2023-05-21T00:49:08;100090.16;;;17.97;69.57
68301;BME280;55146;47.468;18.806;2023-05-21T00:51:34;100089.00;;;17.98;69.50
68301;BME280;55146;47.468;18.806;2023-05-21T00:54:00;100096.38;;;17.94;69.95
68301;BME280;55146;47.468;18.806;2023-05-21T00:56:26;100088.34;;;17.84;70.57
68301;BME280;55146;47.468;18.806;2023-05-21T00:58:53;100085.56;;;17.84;70.76
68301;BME280;55146;47.468;18.806;2023-05-21T01:01:20;100083.72;;;17.79;70.72
68301;BME280;55146;47.468;18.806;2023-05-21T01:03:45;100084.22;;;17.81;70.41
68301;BME280;55146;47.468;18.806;2023-05-21T01:06:12;100077.16;;;17.75;70.74
68301;BME280;55146;47.468;18.806;2023-05-21T01:08:38;100081.25;;;17.69;71.07
68301;BME280;55146;47.468;18.806;2023-05-21T01:11:06;100071.72;;;17.61;71.70
68301;BME280;55146;47.468;18.806;2023-05-21T01:13:33;100071.31;;;17.46;71.72
68301;BME280;55146;47.468;18.806;2023-05-21T01:16:01;100076.88;;;17.54;72.01
68301;BME280;55146;47.468;18.806;2023-05-21T01:18:28;100079.34;;;17.56;71.97
68301;BME280;55146;47.468;18.806;2023-05-21T01:20:54;100076.25;;;17.57;72.06
68301;BME280;55146;47.468;18.806;2023-05-21T01:23:19;100071.84;;;17.56;71.96
68301;BME280;55146;47.468;18.806;2023-05-21T01:25:45;100077.03;;;17.49;72.10
68301;BME280;55146;47.468;18.806;2023-05-21T01:28:11;100066.38;;;17.43;72.99
68301;BME280;55146;47.468;18.806;2023-05-21T01:30:38;100071.16;;;17.51;72.99
68301;BME280;55146;47.468;18.806;2023-05-21T01:33:12;100073.44;;;17.49;72.96
68301;BME280;55146;47.468;18.806;2023-05-21T01:35:46;100067.34;;;17.38;72.89
68301;BME280;55146;47.468;18.806;2023-05-21T01:38:42;100070.47;;;17.45;72.70
68301;BME280;55146;47.468;18.806;2023-05-21T01:41:11;100065.78;;;17.23;72.80
68301;BME280;55146;47.468;18.806;2023-05-21T01:43:38;100072.53;;;17.31;73.24
68301;BME280;55146;47.468;18.806;2023-05-21T01:46:07;100071.69;;;17.22;73.60
68301;BME280;55146;47.468;18.806;2023-05-21T01:48:34;100069.38;;;17.24;73.58
68301;BME280;55146;47.468;18.806;2023-05-21T01:51:02;100071.34;;;17.23;73.80
68301;BME280;55146;47.468;18.806;2023-05-21T01:53:28;100077.34;;;17.17;73.76
68301;BME280;55146;47.468;18.806;2023-05-21T01:55:53;100079.69;;;17.23;73.51
68301;BME280;55146;47.468;18.806;2023-05-21T01:58:19;100076.09;;;17.23;73.73
68301;BME280;55146;47.468;18.806;2023-05-21T02:00:47;100082.53;;;17.10;74.32
68301;BME280;55146;47.468;18.806;2023-05-21T02:03:16;100082.88;;;17.08;74.89
68301;BME280;55146;47.468;18.806;2023-05-21T02:05:41;100085.47;;;17.05;74.01
68301;BME280;55146;47.468;18.806;2023-05-21T02:08:07;100084.84;;;17.08;73.98
68301;BME280;55146;47.468;18.806;2023-05-21T02:10:34;100086.03;;;17.15;73.74
68301;BME280;55146;47.468;18.806;2023-05-21T02:12:59;100083.19;;;17.07;73.87
68301;BME280;55146;47.468;18.806;2023-05-21T02:15:25;100091.72;;;17.10;74.05
68301;BME280;55146;47.468;18.806;2023-05-21T02:17:50;100093.63;;;17.01;74.64
68301;BME280;55146;47.468;18.806;2023-05-21T02:20:17;100089.13;;;16.91;74.63
68301;BME280;55146;47.468;18.806;2023-05-21T02:22:47;100087.56;;;16.99;74.29
68301;BME280;55146;47.468;18.806;2023-05-21T02:25:14;100087.25;;;17.01;74.44
68301;BME280;55146;47.468;18.806;2023-05-21T02:27:40;100082.69;;;17.05;74.20
68301;BME280;55146;47.468;18.806;2023-05-21T02:30:08;100089.03;;;16.96;73.97
68301;BME280;55146;47.468;18.806;2023-05-21T02:32:34;100082.56;;;16.87;74.79
68301;BME280;55146;47.468;18.806;2023-05-21T02:35:01;100080.09;;;16.86;74.52
68301;BME280;55146;47.468;18.806;2023-05-21T02:37:27;100082.56;;;16.87;74.69
68301;BME280;55146;47.468;18.806;2023-05-21T02:39:53;100078.59;;;16.80;74.59
68301;BME280;55146;47.468;18.806;2023-05-21T02:42:20;100083.31;;;16.79;74.87
68301;BME280;55146;47.468;18.806;2023-05-21T02:44:46;100078.41;;;16.76;74.74
68301;BME280;55146;47.468;18.806;2023-05-21T02:47:11;100078.41;;;16.76;74.41
68301;BME280;55146;47.468;18.806;2023-05-21T02:49:37;100082.84;;;16.77;74.10
68301;BME280;55146;47.468;18.806;2023-05-21T02:52:03;100079.16;;;16.68;75.20
68301;BME280;55146;47.468;18.806;2023-05-21T02:54:28;100079.81;;;16.65;75.53
68301;BME280;55146;47.468;18.806;2023-05-21T02:56:53;100075.06;;;16.66;75.33
68301;BME280;55146;47.468;18.806;2023-05-21T02:59:19;100073.44;;;16.65;75.18
68301;BME280;55146;47.468;18.806;2023-05-21T03:01:44;100075.91;;;16.66;75.33
68301;BME280;55146;47.468;18.806;2023-05-21T03:04:09;100076.91;;;16.56;75.35
68301;BME280;55146;47.468;18.806;2023-05-21T03:06:35;100073.91;;;16.67;74.71
68301;BME280;55146;47.468;18.806;2023-05-21T03:09:01;100074.44;;;16.55;75.39
68301;BME280;55146;47.468;18.806;2023-05-21T03:11:27;100078.78;;;16.61;74.71
68301;BME280;55146;47.468;18.806;2023-05-21T03:13:52;100077.66;;;16.62;74.45
68301;BME280;55146;47.468;18.806;2023-05-21T03:16:17;100078.56;;;16.57;75.21
68301;BME280;55146;47.468;18.806;2023-05-21T03:18:42;100081.03;;;16.59;75.23
68301;BME280;55146;47.468;18.806;2023-05-21T03:21:09;100079.81;;;16.51;74.99
68301;BME280;55146;47.468;18.806;2023-05-21T03:23:37;100081.25;;;16.49;75.26
68301;BME280;55146;47.468;18.806;2023-05-21T03:26:03;100080.00;;;16.55;75.03
68301;BME280;55146;47.468;18.806;2023-05-21T03:28:29;100079.12;;;16.46;75.11
68301;BME280;55146;47.468;18.806;2023-05-21T03:30:55;100080.13;;;16.50;75.25
68301;BME280;55146;47.468;18.806;2023-05-21T03:33:21;100073.75;;;16.63;74.06
68301;BME280;55146;47.468;18.806;2023-05-21T03:35:46;100072.09;;;16.48;74.57
68301;BME280;55146;47.468;18.806;2023-05-21T03:38:12;100075.28;;;16.55;74.97
68301;BME280;55146;47.468;18.806;2023-05-21T03:40:37;100077.06;;;16.51;74.41
68301;BME280;55146;47.468;18.806;2023-05-21T03:43:02;100072.44;;;16.47;74.48
68301;BME280;55146;47.468;18.806;2023-05-21T03:45:28;100073.56;;;16.46;74.80
68301;BME280;55146;47.468;18.806;2023-05-21T03:47:53;100075.91;;;16.52;74.13
68301;BME280;55146;47.468;18.806;2023-05-21T03:50:18;100081.78;;;16.51;74.04
68301;BME280;55146;47.468;18.806;2023-05-21T03:52:44;100080.66;;;16.52;73.82
68301;BME280;55146;47.468;18.806;2023-05-21T03:55:09;100086.06;;;16.57;73.94
68301;BME280;55146;47.468;18.806;2023-05-21T03:57:35;100081.75;;;16.65;73.14
68301;BME280;55146;47.468;18.806;2023-05-21T04:00:01;100078.34;;;16.68;73.53
68301;BME280;55146;47.468;18.806;2023-05-21T04:02:26;100089.38;;;16.59;73.98
68301;BME280;55146;47.468;18.806;2023-05-21T04:04:52;100091.25;;;16.50;73.65
68301;BME280;55146;47.468;18.806;2023-05-21T04:07:18;100088.84;;;16.57;74.25
68301;BME280;55146;47.468;18.806;2023-05-21T04:09:44;100089.28;;;16.64;73.58
68301;BME280;55146;47.468;18.806;2023-05-21T04:12:10;100091.75;;;16.66;73.66
68301;BME280;55146;47.468;18.806;2023-05-21T04:14:36;100093.44;;;16.75;73.91
68301;BME280;55146;47.468;18.806;2023-05-21T04:17:04;100092.63;;;16.75;73.02
68301;BME280;55146;47.468;18.806;2023-05-21T04:19:30;100089.47;;;16.90;72.43
68301;BME280;55146;47.468;18.806;2023-05-21T04:21:56;100097.97;;;16.93;71.51
68301;BME280;55146;47.468;18.806;2023-05-21T04:24:22;100098.09;;;17.11;72.24
68301;BME280;55146;47.468;18.806;2023-05-21T04:26:48;100107.09;;;17.08;71.78
68301;BME280;55146;47.468;18.806;2023-05-21T04:29:14;100101.56;;;17.16;70.33
68301;BME280;55146;47.468;18.806;2023-05-21T04:31:42;100096.50;;;17.18;71.36
68301;BME280;55146;47.468;18.806;2023-05-21T04:34:08;100098.06;;;17.33;69.45
68301;BME280;55146;47.468;18.806;2023-05-21T04:36:33;100108.06;;;17.34;70.48
68301;BME280;55146;47.468;18.806;2023-05-21T04:38:58;100107.91;;;17.39;69.50
68301;BME280;55146;47.468;18.806;2023-05-21T04:41:24;100107.56;;;17.40;70.86
68301;BME280;55146;47.468;18.806;2023-05-21T04:43:49;100110.09;;;17.51;70.55
68301;BME280;55146;47.468;18.806;2023-05-21T04:46:20;100102.44;;;17.56;70.47
68301;BME280;55146;47.468;18.806;2023-05-21T04:48:52;100107.56;;;17.63;70.17
68301;BME280;55146;47.468;18.806;2023-05-21T04:51:22;100101.03;;;17.67;70.13
68301;BME280;55146;47.468;18.806;2023-05-21T04:53:49;100108.41;;;17.72;71.11
68301;BME280;55146;47.468;18.806;2023-05-21T04:56:15;100104.84;;;17.80;68.96
68301;BME280;55146;47.468;18.806;2023-05-21T04:58:44;100100.09;;;17.81;69.63
68301;BME280;55146;47.468;18.806;2023-05-21T05:01:11;100113.69;;;17.82;69.26
68301;BME280;55146;47.468;18.806;2023-05-21T05:03:37;100105.84;;;17.84;70.39
68301;BME280;55146;47.468;18.806;2023-05-21T05:06:03;100105.88;;;17.93;68.83
68301;BME280;55146;47.468;18.806;2023-05-21T05:08:28;100100.16;;;17.98;69.38
68301;BME280;55146;47.468;18.806;2023-05-21T05:10:55;100100.34;;;18.01;69.93
68301;BME280;55146;47.468;18.806;2023-05-21T05:13:20;100094.97;;;18.13;70.07
68301;BME280;55146;47.468;18.806;2023-05-21T05:15:46;100094.81;;;18.18;68.79
68301;BME280;55146;47.468;18.806;2023-05-21T05:18:11;100092.69;;;18.24;69.37
68301;BME280;55146;47.468;18.806;2023-05-21T05:20:37;100091.34;;;18.22;68.57
68301;BME280;55146;47.468;18.806;2023-05-21T05:23:02;100085.13;;;18.33;68.62
68301;BME280;55146;47.468;18.806;2023-05-21T05:25:27;100084.50;;;18.45;66.63
68301;BME280;55146;47.468;18.806;2023-05-21T05:27:53;100086.47;;;18.53;66.36
68301;BME280;55146;47.468;18.806;2023-05-21T05:30:19;100086.66;;;18.65;65.47
68301;BME280;55146;47.468;18.806;2023-05-21T05:32:44;100085.66;;;18.78;65.12
68301;BME280;55146;47.468;18.806;2023-05-21T05:35:10;100083.06;;;18.82;66.34
68301;BME280;55146;47.468;18.806;2023-05-21T05:37:36;100091.91;;;18.84;66.34
68301;BME280;55146;47.468;18.806;2023-05-21T05:40:02;100092.88;;;18.96;64.19
68301;BME280;55146;47.468;18.806;2023-05-21T05:42:28;100085.78;;;19.08;63.67
68301;BME280;55146;47.468;18.806;2023-05-21T05:44:54;100075.78;;;19.15;64.17
68301;BME280;55146;47.468;18.806;2023-05-21T05:47:20;100091.66;;;19.23;64.63
68301;BME280;55146;47.468;18.806;2023-05-21T05:49:46;100081.16;;;19.29;63.70
68301;BME280;55146;47.468;18.806;2023-05-21T05:52:11;100079.97;;;19.38;65.05
68301;BME280;55146;47.468;18.806;2023-05-21T05:54:36;100083.59;;;19.48;62.63
68301;BME280;55146;47.468;18.806;2023-05-21T05:57:02;100081.53;;;19.65;60.73
68301;BME280;55146;47.468;18.806;2023-05-21T05:59:27;100080.28;;;19.84;60.63
68301;BME280;55146;47.468;18.806;2023-05-21T06:01:53;100077.59;;;19.96;60.64
68301;BME280;55146;47.468;18.806;2023-05-21T06:04:18;100079.62;;;20.16;59.40
68301;BME280;55146;47.468;18.806;2023-05-21T06:06:43;100074.25;;;20.32;60.82
68301;BME280;55146;47.468;18.806;2023-05-21T06:09:08;100068.41;;;20.45;61.18
68301;BME280;55146;47.468;18.806;2023-05-21T06:11:34;100075.28;;;20.69;61.23
68301;BME280;55146;47.468;18.806;2023-05-21T06:13:59;100073.63;;;20.88;58.06
68301;BME280;55146;47.468;18.806;2023-05-21T06:16:26;100073.25;;;21.11;57.82
68301;BME280;55146;47.468;18.806;2023-05-21T06:18:51;100086.72;;;21.29;61.21
68301;BME280;55146;47.468;18.806;2023-05-21T06:21:16;100081.97;;;21.54;59.65
68301;BME280;55146;47.468;18.806;2023-05-21T06:23:42;100085.75;;;21.70;58.40
68301;BME280;55146;47.468;18.806;2023-05-21T06:26:07;100077.22;;;21.91;55.08
68301;BME280;55146;47.468;18.806;2023-05-21T06:28:33;100080.28;;;22.10;54.45
68301;BME280;55146;47.468;18.806;2023-05-21T06:30:58;100077.94;;;22.25;53.97
68301;BME280;55146;47.468;18.806;2023-05-21T06:33:24;100076.62;;;22.46;53.02
68301;BME280;55146;47.468;18.806;2023-05-21T06:35:51;100073.41;;;22.60;50.71
68301;BME280;55146;47.468;18.806;2023-05-21T06:38:16;100073.03;;;22.74;54.24
68301;BME280;55146;47.468;18.806;2023-05-21T06:40:42;100067.50;;;22.89;50.60
68301;BME280;55146;47.468;18.806;2023-05-21T06:43:08;100077.56;;;23.06;53.00
68301;BME280;55146;47.468;18.806;2023-05-21T06:45:34;100067.72;;;23.28;51.45
68301;BME280;55146;47.468;18.806;2023-05-21T06:47:59;100075.13;;;23.48;50.89
68301;BME280;55146;47.468;18.806;2023-05-21T06:50:24;100072.78;;;23.66;50.82
68301;BME280;55146;47.468;18.806;2023-05-21T06:52:50;100067.25;;;23.85;51.75
68301;BME280;55146;47.468;18.806;2023-05-21T06:55:15;100067.50;;;23.96;49.69
68301;BME280;55146;47.468;18.806;2023-05-21T06:57:40;100067.78;;;24.06;48.32
68301;BME280;55146;47.468;18.806;2023-05-21T07:00:08;100064.75;;;24.15;47.79
68301;BME280;55146;47.468;18.806;2023-05-21T07:02:34;100068.50;;;24.38;47.87
68301;BME280;55146;47.468;18.806;2023-05-21T07:04:59;100069.31;;;24.39;46.83
68301;BME280;55146;47.468;18.806;2023-05-21T07:07:24;100064.34;;;24.32;47.23
68301;BME280;55146;47.468;18.806;2023-05-21T07:09:51;100061.88;;;24.46;47.44
68301;BME280;55146;47.468;18.806;2023-05-21T07:12:16;100065.03;;;24.45;48.67
68301;BME280;55146;47.468;18.806;2023-05-21T07:14:42;100065.22;;;24.71;48.96
68301;BME280;55146;47.468;18.806;2023-05-21T07:17:07;100061.22;;;24.53;46.61
68301;BME280;55146;47.468;18.806;2023-05-21T07:19:32;100061.28;;;24.56;46.84
68301;BME280;55146;47.468;18.806;2023-05-21T07:21:58;100062.09;;;24.57;48.67
68301;BME280;55146;47.468;18.806;2023-05-21T07:24:23;100061.22;;;24.72;45.86
68301;BME280;55146;47.468;18.806;2023-05-21T07:26:51;100047.31;;;24.79;46.84
68301;BME280;55146;47.468;18.806;2023-05-21T07:29:16;100049.19;;;24.91;45.07
68301;BME280;55146;47.468;18.806;2023-05-21T07:31:42;100055.75;;;24.79;44.46
68301;BME280;55146;47.468;18.806;2023-05-21T07:34:07;100051.53;;;24.89;45.04
68301;BME280;55146;47.468;18.806;2023-05-21T07:36:32;100061.13;;;24.88;46.64
68301;BME280;55146;47.468;18.806;2023-05-21T07:38:58;100053.59;;;25.11;48.06
68301;BME280;55146;47.468;18.806;2023-05-21T07:41:23;100049.28;;;25.17;45.05
68301;BME280;55146;47.468;18.806;2023-05-21T07:43:48;100050.63;;;25.23;43.81
68301;BME280;55146;47.468;18.806;2023-05-21T07:46:14;100058.09;;;25.16;44.14
68301;BME280;55146;47.468;18.806;2023-05-21T07:48:39;100065.41;;;24.97;42.79
68301;BME280;55146;47.468;18.806;2023-05-21T07:51:06;100051.16;;;25.10;43.19
68301;BME280;55146;47.468;18.806;2023-05-21T07:53:31;100044.16;;;25.46;43.39
68301;BME280;55146;47.468;18.806;2023-05-21T07:55:58;100046.87;;;25.84;45.22
68301;BME280;55146;47.468;18.806;2023-05-21T07:58:23;100041.72;;;25.90;44.83
68301;BME280;55146;47.468;18.806;2023-05-21T08:00:49;100043.28;;;25.87;42.90
68301;BME280;55146;47.468;18.806;2023-05-21T08:03:16;100045.78;;;26.18;43.05
68301;BME280;55146;47.468;18.806;2023-05-21T08:05:43;100045.81;;;26.48;46.58
68301;BME280;55146;47.468;18.806;2023-05-21T08:08:18;100048.97;;;26.73;42.46
68301;BME280;55146;47.468;18.806;2023-05-21T08:10:44;100047.84;;;26.22;41.79
68301;BME280;55146;47.468;18.806;2023-05-21T08:13:14;100049.91;;;26.51;44.48
68301;BME280;55146;47.468;18.806;2023-05-21T08:15:39;100050.47;;;26.34;44.83
68301;BME280;55146;47.468;18.806;2023-05-21T08:18:05;100043.63;;;26.65;41.22
68301;BME280;55146;47.468;18.806;2023-05-21T08:20:30;100039.38;;;26.81;43.68
68301;BME280;55146;47.468;18.806;2023-05-21T08:22:57;100048.56;;;27.05;43.59
68301;BME280;55146;47.468;18.806;2023-05-21T08:25:25;100038.34;;;27.30;42.23
68301;BME280;55146;47.468;18.806;2023-05-21T08:27:50;100041.97;;;27.30;43.97
68301;BME280;55146;47.468;18.806;2023-05-21T08:30:16;100042.81;;;27.34;42.79
68301;BME280;55146;47.468;18.806;2023-05-21T08:32:41;100045.47;;;27.54;41.30
68301;BME280;55146;47.468;18.806;2023-05-21T08:35:07;100036.22;;;27.20;38.75
68301;BME280;55146;47.468;18.806;2023-05-21T08:37:32;100032.12;;;27.14;41.22
68301;BME280;55146;47.468;18.806;2023-05-21T08:39:58;100043.31;;;27.44;40.72
68301;BME280;55146;47.468;18.806;2023-05-21T08:42:34;100038.47;;;27.44;42.36
68301;BME280;55146;47.468;18.806;2023-05-21T08:45:04;100048.03;;;27.73;42.81
68301;BME280;55146;47.468;18.806;2023-05-21T08:47:33;100044.03;;;27.74;39.91
68301;BME280;55146;47.468;18.806;2023-05-21T08:49:59;100047.53;;;27.60;39.92
68301;BME280;55146;47.468;18.806;2023-05-21T08:52:25;100040.31;;;27.63;40.86
68301;BME280;55146;47.468;18.806;2023-05-21T08:54:52;100036.41;;;27.41;40.57
68301;BME280;55146;47.468;18.806;2023-05-21T08:57:19;100038.72;;;26.91;40.42
68301;BME280;55146;47.468;18.806;2023-05-21T08:59:47;100039.75;;;26.76;40.46
68301;BME280;55146;47.468;18.806;2023-05-21T09:02:13;100030.34;;;26.65;39.78
68301;BME280;55146;47.468;18.806;2023-05-21T09:04:42;100040.75;;;26.91;39.30
68301;BME280;55146;47.468;18.806;2023-05-21T09:07:13;100040.34;;;26.92;40.41
68301;BME280;55146;47.468;18.806;2023-05-21T09:09:46;100039.34;;;26.78;40.01
68301;BME280;55146;47.468;18.806;2023-05-21T09:12:13;100041.75;;;26.76;40.38
68301;BME280;55146;47.468;18.806;2023-05-21T09:14:39;100047.19;;;26.91;41.95
68301;BME280;55146;47.468;18.806;2023-05-21T09:17:05;100041.91;;;27.23;40.33
68301;BME280;55146;47.468;18.806;2023-05-21T09:19:30;100045.81;;;27.12;41.38
68301;BME280;55146;47.468;18.806;2023-05-21T09:22:05;100041.78;;;27.13;39.64
68301;BME280;55146;47.468;18.806;2023-05-21T09:24:31;100030.22;;;27.25;41.53
68301;BME280;55146;47.468;18.806;2023-05-21T09:26:56;100032.31;;;27.31;40.10
68301;BME280;55146;47.468;18.806;2023-05-21T09:29:22;100037.03;;;26.87;40.32
68301;BME280;55146;47.468;18.806;2023-05-21T09:31:50;100037.41;;;26.85;40.16
68301;BME280;55146;47.468;18.806;2023-05-21T09:34:16;100034.28;;;27.27;43.00
68301;BME280;55146;47.468;18.806;2023-05-21T09:36:41;100032.84;;;27.48;39.21
68301;BME280;55146;47.468;18.806;2023-05-21T09:39:07;100032.75;;;27.37;38.38
68301;BME280;55146;47.468;18.806;2023-05-21T09:41:35;100034.31;;;27.31;39.52
68301;BME280;55146;47.468;18.806;2023-05-21T09:44:01;100038.06;;;27.42;41.64
68301;BME280;55146;47.468;18.806;2023-05-21T09:46:36;100030.44;;;27.46;38.11
68301;BME280;55146;47.468;18.806;2023-05-21T09:49:02;100033.03;;;27.62;38.22
68301;BME280;55146;47.468;18.806;2023-05-21T09:51:27;100046.53;;;27.86;37.35
68301;BME280;55146;47.468;18.806;2023-05-21T09:53:54;100039.81;;;28.01;37.93
68301;BME280;55146;47.468;18.806;2023-05-21T09:56:26;100033.91;;;28.21;37.86
68301;BME280;55146;47.468;18.806;2023-05-21T09:59:02;100024.00;;;28.62;37.75
68301;BME280;55146;47.468;18.806;2023-05-21T10:01:31;100025.62;;;27.98;38.78
68301;BME280;55146;47.468;18.806;2023-05-21T10:04:03;100038.72;;;28.16;40.49
68301;BME280;55146;47.468;18.806;2023-05-21T10:06:31;100035.62;;;27.85;39.04
68301;BME280;55146;47.468;18.806;2023-05-21T10:08:58;100023.84;;;28.30;37.35
68301;BME280;55146;47.468;18.806;2023-05-21T10:11:29;100024.00;;;27.97;41.00
68301;BME280;55146;47.468;18.806;2023-05-21T10:14:18;100027.28;;;28.06;40.36
68301;BME280;55146;47.468;18.806;2023-05-21T10:16:46;100013.03;;;28.50;38.90
68301;BME280;55146;47.468;18.806;2023-05-21T10:19:13;100019.19;;;28.73;36.34
68301;BME280;55146;47.468;18.806;2023-05-21T10:21:40;100008.81;;;29.06;39.59
68301;BME280;55146;47.468;18.806;2023-05-21T10:24:07;100016.87;;;29.07;36.51
68301;BME280;55146;47.468;18.806;2023-05-21T10:26:33;100008.62;;;28.70;36.78
68301;BME280;55146;47.468;18.806;2023-05-21T10:29:01;100003.75;;;28.56;36.03
68301;BME280;55146;47.468;18.806;2023-05-21T10:31:27;100007.41;;;28.61;34.79
68301;BME280;55146;47.468;18.806;2023-05-21T10:33:52;100009.00;;;27.89;34.57
68301;BME280;55146;47.468;18.806;2023-05-21T10:36:19;100015.47;;;27.90;35.75
68301;BME280;55146;47.468;18.806;2023-05-21T10:38:45;100015.59;;;28.07;37.25
68301;BME280;55146;47.468;18.806;2023-05-21T10:41:12;100009.06;;;28.00;37.23
68301;BME280;55146;47.468;18.806;2023-05-21T10:46:40;100015.50;;;27.97;36.60
68301;BME280;55146;47.468;18.806;2023-05-21T10:54:47;100002.59;;;27.96;34.98
68301;BME280;55146;47.468;18.806;2023-05-21T10:59:54;100000.03;;;28.38;35.40
68301;BME280;55146;47.468;18.806;2023-05-21T11:02:25;100000.53;;;28.62;35.89
68301;BME280;55146;47.468;18.806;2023-05-21T11:04:57;99999.63;;;28.40;35.27
68301;BME280;55146;47.468;18.806;2023-05-21T11:07:49;99998.66;;;28.14;37.76
68301;BME280;55146;47.468;18.806;2023-05-21T11:10:39;99990.00;;;28.51;34.30
68301;BME280;55146;47.468;18.806;2023-05-21T11:13:15;99992.56;;;28.92;37.56
68301;BME280;55146;47.468;18.806;2023-05-21T11:18:21;99984.09;;;28.99;35.09
68301;BME280;55146;47.468;18.806;2023-05-21T11:20:50;99991.38;;;29.04;34.60
68301;BME280;55146;47.468;18.806;2023-05-21T11:23:17;99993.50;;;29.42;36.93
68301;BME280;55146;47.468;18.806;2023-05-21T11:25:42;99989.81;;;29.24;34.29
68301;BME280;55146;47.468;18.806;2023-05-21T11:28:08;99989.31;;;28.76;35.02
68301;BME280;55146;47.468;18.806;2023-05-21T11:30:33;99993.47;;;28.24;35.70
68301;BME280;55146;47.468;18.806;2023-05-21T11:35:55;99976.59;;;28.38;36.27
68301;BME280;55146;47.468;18.806;2023-05-21T11:38:21;99974.66;;;28.63;34.88
68301;BME280;55146;47.468;18.806;2023-05-21T11:40:51;99983.88;;;28.46;35.66
68301;BME280;55146;47.468;18.806;2023-05-21T11:43:18;99971.09;;;28.84;36.79
68301;BME280;55146;47.468;18.806;2023-05-21T11:45:44;99979.63;;;28.87;34.71
68301;BME280;55146;47.468;18.806;2023-05-21T11:48:14;99962.94;;;28.68;35.84
68301;BME280;55146;47.468;18.806;2023-05-21T11:50:40;99968.69;;;28.86;35.38
68301;BME280;55146;47.468;18.806;2023-05-21T11:53:09;99970.72;;;28.92;33.39
68301;BME280;55146;47.468;18.806;2023-05-21T11:55:39;99966.22;;;28.74;32.90
68301;BME280;55146;47.468;18.806;2023-05-21T11:58:08;99969.00;;;28.70;35.19
68301;BME280;55146;47.468;18.806;2023-05-21T12:00:38;99971.91;;;28.81;37.52
68301;BME280;55146;47.468;18.806;2023-05-21T12:03:06;99970.75;;;29.10;37.11
68301;BME280;55146;47.468;18.806;2023-05-21T12:05:47;99956.53;;;28.85;33.75
68301;BME280;55146;47.468;18.806;2023-05-21T12:08:22;99954.13;;;28.91;34.77
68301;BME280;55146;47.468;18.806;2023-05-21T12:10:57;99944.69;;;28.55;34.29
68301;BME280;55146;47.468;18.806;2023-05-21T12:13:22;99956.97;;;28.87;37.26
68301;BME280;55146;47.468;18.806;2023-05-21T12:15:51;99958.16;;;28.90;36.79
68301;BME280;55146;47.468;18.806;2023-05-21T12:18:17;99961.63;;;28.41;35.18
68301;BME280;55146;47.468;18.806;2023-05-21T12:20:43;99965.44;;;28.04;36.32
68301;BME280;55146;47.468;18.806;2023-05-21T12:23:23;99956.44;;;27.81;35.49
68301;BME280;55146;47.468;18.806;2023-05-21T12:25:50;99950.06;;;27.95;39.22
68301;BME280;55146;47.468;18.806;2023-05-21T12:28:16;99948.09;;;28.09;37.32
68301;BME280;55146;47.468;18.806;2023-05-21T12:30:41;99948.09;;;28.09;36.13
68301;BME280;55146;47.468;18.806;2023-05-21T12:33:07;99941.34;;;28.28;36.39
68301;BME280;55146;47.468;18.806;2023-05-21T12:35:32;99945.84;;;28.33;35.82
68301;BME280;55146;47.468;18.806;2023-05-21T12:38:01;99951.12;;;28.52;37.42
68301;BME280;55146;47.468;18.806;2023-05-21T12:40:34;99938.28;;;28.69;36.59
68301;BME280;55146;47.468;18.806;2023-05-21T12:43:03;99936.62;;;28.57;35.18
68301;BME280;55146;47.468;18.806;2023-05-21T12:45:31;99935.72;;;28.35;37.63
68301;BME280;55146;47.468;18.806;2023-05-21T12:47:56;99935.38;;;28.58;39.30
68301;BME280;55146;47.468;18.806;2023-05-21T12:50:25;99934.94;;;28.38;35.49
68301;BME280;55146;47.468;18.806;2023-05-21T12:52:53;99941.41;;;28.39;39.07
68301;BME280;55146;47.468;18.806;2023-05-21T12:55:21;99925.22;;;28.36;38.15